sensor_id;sensor_type;location;lat;lon;timestamp;pressure;altitude;pressure_sealevel;temperature;humidity
3294;BME280;1659;51.470;6.770;2023-08-30T00:01:59;100697.78;;;14.96;78.03
3294;BME280;1659;51.470;6.770;2023-08-30T00:04:26;100692.72;;;14.89;78.21
3294;BME280;1659;51.470;6.770;2023-08-30T00:06:52;100700.88;;;14.85;78.19
3294;BME280;1659;51.470;6.770;2023-08-30T00:09:19;100702.72;;;14.83;78.28
3294;BME280;1659;51.470;6.770;2023-08-30T00:11:45;100694.84;;;14.80;78.57
3294;BME280;1659;51.470;6.770;2023-08-30T00:14:13;100700.38;;;14.75;78.63
3294;BME280;1659;51.470;6.770;2023-08-30T00:16:40;100695.25;;;14.69;78.44
3294;BME280;1659;51.470;6.770;2023-08-30T00:19:06;100694.56;;;14.64;78.64
3294;BME280;1659;51.470;6.770;2023-08-30T00:21:33;100695.59;;;14.60;79.02
3294;BME280;1659;51.470;6.770;2023-08-30T00:23:59;100698.34;;;14.57;79.18
3294;BME280;1659;51.470;6.770;2023-08-30T00:26:26;100701.09;;;14.53;79.21
3294;BME280;1659;51.470;6.770;2023-08-30T00:28:53;100695.03;;;14.50;79.33
3294;BME280;1659;51.470;6.770;2023-08-30T00:31:21;100702.19;;;14.48;79.20
3294;BME280;1659;51.470;6.770;2023-08-30T00:33:48;100703.94;;;14.49;79.58
3294;BME280;1659;51.470;6.770;2023-08-30T00:36:14;100692.41;;;14.48;79.39
3294;BME280;1659;51.470;6.770;2023-08-30T00:38:42;100697.63;;;14.51;79.49
3294;BME280;1659;51.470;6.770;2023-08-30T00:41:09;100697.56;;;14.53;79.88
3294;BME280;1659;51.470;6.770;2023-08-30T00:43:35;100688.75;;;14.52;79.75
3294;BME280;1659;51.470;6.770;2023-08-30T00:46:02;100688.75;;;14.52;80.02
3294;BME280;1659;51.470;6.770;2023-08-30T00:48:30;100689.59;;;14.53;80.21
3294;BME280;1659;51.470;6.770;2023-08-30T00:50:56;100682.53;;;14.52;80.31
3294;BME280;1659;51.470;6.770;2023-08-30T00:53:23;100679.88;;;14.52;80.54
3294;BME280;1659;51.470;6.770;2023-08-30T00:55:50;100685.19;;;14.52;80.73
3294;BME280;1659;51.470;6.770;2023-08-30T00:58:16;100682.63;;;14.50;80.51
3294;BME280;1659;51.470;6.770;2023-08-30T01:00:44;100695.91;;;14.50;80.96
3294;BME280;1659;51.470;6.770;2023-08-30T01:03:13;100690.59;;;14.50;81.29
3294;BME280;1659;51.470;6.770;2023-08-30T01:05:40;100687.00;;;14.51;81.11
3294;BME280;1659;51.470;6.770;2023-08-30T01:08:07;100680.81;;;14.51;81.08
3294;BME280;1659;51.470;6.770;2023-08-30T01:10:44;100672.91;;;14.49;81.21
3294;BME280;1659;51.470;6.770;2023-08-30T01:13:15;100672.03;;;14.49;81.37
3294;BME280;1659;51.470;6.770;2023-08-30T01:15:46;100662.41;;;14.45;81.28
3294;BME280;1659;51.470;6.770;2023-08-30T01:18:16;100666.13;;;14.41;81.66
3294;BME280;1659;51.470;6.770;2023-08-30T01:20:46;100654.78;;;14.35;81.63
3294;BME280;1659;51.470;6.770;2023-08-30T01:23:20;100654.88;;;14.32;81.70
3294;BME280;1659;51.470;6.770;2023-08-30T01:25:55;100655.03;;;14.29;81.96
3294;BME280;1659;51.470;6.770;2023-08-30T01:28:26;100655.97;;;14.27;81.99
3294;BME280;1659;51.470;6.770;2023-08-30T01:30:55;100659.56;;;14.26;81.81
3294;BME280;1659;51.470;6.770;2023-08-30T01:33:24;100650.78;;;14.24;82.44
3294;BME280;1659;51.470;6.770;2023-08-30T01:35:52;100649.97;;;14.22;82.18
3294;BME280;1659;51.470;6.770;2023-08-30T01:38:19;100658.78;;;14.22;82.38
3294;BME280;1659;51.470;6.770;2023-08-30T01:40:47;100658.88;;;14.21;82.47
3294;BME280;1659;51.470;6.770;2023-08-30T01:43:14;100654.31;;;14.24;82.65
3294;BME280;1659;51.470;6.770;2023-08-30T01:45:43;100653.31;;;14.27;82.46
3294;BME280;1659;51.470;6.770;2023-08-30T01:48:12;100663.81;;;14.31;82.72
3294;BME280;1659;51.470;6.770;2023-08-30T01:50:40;100659.19;;;14.37;82.70
3294;BME280;1659;51.470;6.770;2023-08-30T01:53:08;100661.56;;;14.44;82.51
3294;BME280;1659;51.470;6.770;2023-08-30T01:55:35;100656.09;;;14.49;82.54
3294;BME280;1659;51.470;6.770;2023-08-30T01:58:03;100647.91;;;14.53;82.64
3294;BME280;1659;51.470;6.770;2023-08-30T02:00:29;100645.13;;;14.58;82.38
3294;BME280;1659;51.470;6.770;2023-08-30T02:02:57;100647.75;;;14.60;82.55
3294;BME280;1659;51.470;6.770;2023-08-30T02:05:24;100642.41;;;14.60;82.60
3294;BME280;1659;51.470;6.770;2023-08-30T02:07:56;100649.44;;;14.61;82.68
3294;BME280;1659;51.470;6.770;2023-08-30T02:10:26;100641.47;;;14.61;82.96
3294;BME280;1659;51.470;6.770;2023-08-30T02:12:54;100642.41;;;14.60;82.90
3294;BME280;1659;51.470;6.770;2023-08-30T02:15:24;100643.31;;;14.59;82.88
3294;BME280;1659;51.470;6.770;2023-08-30T02:17:51;100646.91;;;14.58;83.01
3294;BME280;1659;51.470;6.770;2023-08-30T02:20:19;100648.66;;;14.57;83.27
3294;BME280;1659;51.470;6.770;2023-08-30T02:22:46;100649.56;;;14.58;83.14
3294;BME280;1659;51.470;6.770;2023-08-30T02:25:13;100645.22;;;14.55;83.48
3294;BME280;1659;51.470;6.770;2023-08-30T02:27:39;100646.16;;;14.54;83.36
3294;BME280;1659;51.470;6.770;2023-08-30T02:30:07;100652.47;;;14.50;83.67
3294;BME280;1659;51.470;6.770;2023-08-30T02:32:34;100654.28;;;14.49;83.57
3294;BME280;1659;51.470;6.770;2023-08-30T02:35:01;100646.47;;;14.45;83.79
3294;BME280;1659;51.470;6.770;2023-08-30T02:37:29;100645.66;;;14.43;83.62
3294;BME280;1659;51.470;6.770;2023-08-30T02:39:55;100647.47;;;14.42;83.97
3294;BME280;1659;51.470;6.770;2023-08-30T02:42:22;100653.75;;;14.40;84.13
3294;BME280;1659;51.470;6.770;2023-08-30T02:44:48;100652.88;;;14.39;83.78
3294;BME280;1659;51.470;6.770;2023-08-30T02:47:15;100645.94;;;14.35;83.98
3294;BME280;1659;51.470;6.770;2023-08-30T02:49:41;100645.19;;;14.31;84.14
3294;BME280;1659;51.470;6.770;2023-08-30T02:52:08;100640.03;;;14.27;84.43
3294;BME280;1659;51.470;6.770;2023-08-30T02:54:36;100628.69;;;14.22;84.72
3294;BME280;1659;51.470;6.770;2023-08-30T02:57:02;100633.25;;;14.18;84.46
3294;BME280;1659;51.470;6.770;2023-08-30T02:59:29;100627.13;;;14.16;84.40
3294;BME280;1659;51.470;6.770;2023-08-30T03:01:56;100621.94;;;14.13;84.46
3294;BME280;1659;51.470;6.770;2023-08-30T03:04:22;100619.44;;;14.08;84.82
3294;BME280;1659;51.470;6.770;2023-08-30T03:06:49;100623.97;;;14.05;84.86
3294;BME280;1659;51.470;6.770;2023-08-30T03:09:15;100618.84;;;14.00;84.58
3294;BME280;1659;51.470;6.770;2023-08-30T03:11:43;100615.50;;;13.95;84.90
3294;BME280;1659;51.470;6.770;2023-08-30T03:14:10;100620.94;;;13.90;84.93
3294;BME280;1659;51.470;6.770;2023-08-30T03:16:36;100619.28;;;13.88;84.88
3294;BME280;1659;51.470;6.770;2023-08-30T03:19:03;100613.22;;;13.84;85.00
3294;BME280;1659;51.470;6.770;2023-08-30T03:21:29;100614.13;;;13.83;85.24
3294;BME280;1659;51.470;6.770;2023-08-30T03:23:56;100615.91;;;13.83;85.07
3294;BME280;1659;51.470;6.770;2023-08-30T03:26:22;100608.91;;;13.80;85.11
3294;BME280;1659;51.470;6.770;2023-08-30T03:28:50;100606.31;;;13.78;84.99
3294;BME280;1659;51.470;6.770;2023-08-30T03:31:18;100607.28;;;13.76;85.21
3294;BME280;1659;51.470;6.770;2023-08-30T03:33:46;100609.19;;;13.72;85.16
3294;BME280;1659;51.470;6.770;2023-08-30T03:36:13;100612.94;;;13.67;85.15
3294;BME280;1659;51.470;6.770;2023-08-30T03:38:40;100607.75;;;13.62;85.26
3294;BME280;1659;51.470;6.770;2023-08-30T03:41:08;100599.94;;;13.57;85.25
3294;BME280;1659;51.470;6.770;2023-08-30T03:43:34;100595.56;;;13.56;85.30
3294;BME280;1659;51.470;6.770;2023-08-30T03:46:02;100603.69;;;13.52;85.98
3294;BME280;1659;51.470;6.770;2023-08-30T03:48:30;100591.53;;;13.45;85.82
3294;BME280;1659;51.470;6.770;2023-08-30T03:50:57;100589.91;;;13.40;85.79
3294;BME280;1659;51.470;6.770;2023-08-30T03:53:24;100596.16;;;13.38;85.92
3294;BME280;1659;51.470;6.770;2023-08-30T03:55:51;100591.84;;;13.35;85.86
3294;BME280;1659;51.470;6.770;2023-08-30T03:58:18;100591.91;;;13.34;86.14
3294;BME280;1659;51.470;6.770;2023-08-30T04:00:45;100590.19;;;13.31;86.12
3294;BME280;1659;51.470;6.770;2023-08-30T04:03:14;100594.69;;;13.28;86.30
3294;BME280;1659;51.470;6.770;2023-08-30T04:05:41;100593.88;;;13.26;86.32
3294;BME280;1659;51.470;6.770;2023-08-30T04:08:08;100601.91;;;13.24;86.28
3294;BME280;1659;51.470;6.770;2023-08-30T04:10:35;100607.22;;;13.24;86.04
3294;BME280;1659;51.470;6.770;2023-08-30T04:13:02;100597.53;;;13.23;86.10
3294;BME280;1659;51.470;6.770;2023-08-30T04:15:29;100585.94;;;13.26;86.57
3294;BME280;1659;51.470;6.770;2023-08-30T04:17:58;100581.47;;;13.26;86.39
3294;BME280;1659;51.470;6.770;2023-08-30T04:20:26;100577.09;;;13.25;86.68
3294;BME280;1659;51.470;6.770;2023-08-30T04:22:53;100573.59;;;13.25;86.47
3294;BME280;1659;51.470;6.770;2023-08-30T04:25:20;100566.50;;;13.25;86.63
3294;BME280;1659;51.470;6.770;2023-08-30T04:27:47;100562.06;;;13.26;86.48
3294;BME280;1659;51.470;6.770;2023-08-30T04:30:15;100564.66;;;13.27;86.84
3294;BME280;1659;51.470;6.770;2023-08-30T04:32:42;100560.22;;;13.28;86.70
3294;BME280;1659;51.470;6.770;2023-08-30T04:35:09;100560.25;;;13.26;86.77
3294;BME280;1659;51.470;6.770;2023-08-30T04:37:37;100553.28;;;13.23;86.88
3294;BME280;1659;51.470;6.770;2023-08-30T04:40:05;100554.19;;;13.22;87.32
3294;BME280;1659;51.470;6.770;2023-08-30T04:42:33;100561.28;;;13.22;87.25
3294;BME280;1659;51.470;6.770;2023-08-30T04:44:59;100552.41;;;13.23;87.23
3294;BME280;1659;51.470;6.770;2023-08-30T04:47:26;100560.34;;;13.25;87.15
3294;BME280;1659;51.470;6.770;2023-08-30T04:49:53;100556.69;;;13.27;87.24
3294;BME280;1659;51.470;6.770;2023-08-30T04:52:19;100545.97;;;13.30;87.49
3294;BME280;1659;51.470;6.770;2023-08-30T04:54:47;100544.97;;;13.34;87.50
3294;BME280;1659;51.470;6.770;2023-08-30T04:57:14;100540.44;;;13.38;87.51
3294;BME280;1659;51.470;6.770;2023-08-30T04:59:41;100534.88;;;13.46;87.70
3294;BME280;1659;51.470;6.770;2023-08-30T05:02:08;100535.50;;;13.52;87.97
3294;BME280;1659;51.470;6.770;2023-08-30T05:04:35;100531.75;;;13.59;87.63
3294;BME280;1659;51.470;6.770;2023-08-30T05:07:02;100535.97;;;13.65;87.61
3294;BME280;1659;51.470;6.770;2023-08-30T05:09:29;100522.50;;;13.70;88.00
3294;BME280;1659;51.470;6.770;2023-08-30T05:11:57;100528.53;;;13.75;88.08
3294;BME280;1659;51.470;6.770;2023-08-30T05:14:24;100519.59;;;13.77;88.32
3294;BME280;1659;51.470;6.770;2023-08-30T05:16:51;100520.41;;;13.79;88.29
3294;BME280;1659;51.470;6.770;2023-08-30T05:19:17;100515.03;;;13.81;88.33
3294;BME280;1659;51.470;6.770;2023-08-30T05:21:44;100520.31;;;13.83;88.31
3294;BME280;1659;51.470;6.770;2023-08-30T05:24:10;100511.34;;;13.85;88.19
3294;BME280;1659;51.470;6.770;2023-08-30T05:26:37;100508.63;;;13.87;88.42
3294;BME280;1659;51.470;6.770;2023-08-30T05:29:05;100510.44;;;13.86;88.48
3294;BME280;1659;51.470;6.770;2023-08-30T05:31:31;100502.47;;;13.86;88.29
3294;BME280;1659;51.470;6.770;2023-08-30T05:33:58;100497.91;;;13.90;88.34
3294;BME280;1659;51.470;6.770;2023-08-30T05:36:25;100493.41;;;13.92;88.60
3294;BME280;1659;51.470;6.770;2023-08-30T05:38:51;100488.09;;;13.92;88.38
3294;BME280;1659;51.470;6.770;2023-08-30T05:41:18;100490.63;;;13.95;88.87
3294;BME280;1659;51.470;6.770;2023-08-30T05:43:44;100480.75;;;13.98;88.48
3294;BME280;1659;51.470;6.770;2023-08-30T05:46:12;100484.22;;;14.01;88.78
3294;BME280;1659;51.470;6.770;2023-08-30T05:48:41;100491.97;;;14.07;88.50
3294;BME280;1659;51.470;6.770;2023-08-30T05:51:07;100489.06;;;14.13;88.54
3294;BME280;1659;51.470;6.770;2023-08-30T05:53:34;100488.78;;;14.21;88.39
3294;BME280;1659;51.470;6.770;2023-08-30T05:56:00;100481.31;;;14.30;88.31
3294;BME280;1659;51.470;6.770;2023-08-30T05:58:28;100475.63;;;14.40;88.20
3294;BME280;1659;51.470;6.770;2023-08-30T06:00:55;100477.06;;;14.48;88.07
3294;BME280;1659;51.470;6.770;2023-08-30T06:03:23;100474.94;;;14.58;87.83
3294;BME280;1659;51.470;6.770;2023-08-30T06:05:49;100471.09;;;14.65;87.61
3294;BME280;1659;51.470;6.770;2023-08-30T06:08:16;100469.94;;;14.72;87.31
3294;BME280;1659;51.470;6.770;2023-08-30T06:10:43;100464.44;;;14.77;87.31
3294;BME280;1659;51.470;6.770;2023-08-30T06:13:10;100463.19;;;14.86;87.46
3294;BME280;1659;51.470;6.770;2023-08-30T06:15:36;100464.53;;;14.96;87.10
3294;BME280;1659;51.470;6.770;2023-08-30T06:18:04;100465.06;;;15.04;86.92
3294;BME280;1659;51.470;6.770;2023-08-30T06:20:32;100453.03;;;15.16;86.72
3294;BME280;1659;51.470;6.770;2023-08-30T06:22:59;100458.72;;;15.29;86.64
3294;BME280;1659;51.470;6.770;2023-08-30T06:25:25;100465.81;;;15.49;86.66
3294;BME280;1659;51.470;6.770;2023-08-30T06:27:56;100459.34;;;15.75;86.42
3294;BME280;1659;51.470;6.770;2023-08-30T06:30:24;100457.50;;;15.96;85.91
3294;BME280;1659;51.470;6.770;2023-08-30T06:32:50;100452.97;;;16.17;85.71
3294;BME280;1659;51.470;6.770;2023-08-30T06:35:17;100457.66;;;16.31;85.03
3294;BME280;1659;51.470;6.770;2023-08-30T06:37:45;100464.06;;;16.46;84.92
3294;BME280;1659;51.470;6.770;2023-08-30T06:40:12;100453.53;;;16.62;84.43
3294;BME280;1659;51.470;6.770;2023-08-30T06:42:39;100445.34;;;16.84;84.13
3294;BME280;1659;51.470;6.770;2023-08-30T06:45:06;100453.13;;;17.06;83.54
3294;BME280;1659;51.470;6.770;2023-08-30T06:47:33;100460.28;;;17.23;83.12
3294;BME280;1659;51.470;6.770;2023-08-30T06:50:00;100453.19;;;17.40;82.29
3294;BME280;1659;51.470;6.770;2023-08-30T06:52:29;100448.75;;;17.56;81.63
3294;BME280;1659;51.470;6.770;2023-08-30T06:54:57;100441.59;;;17.74;81.20
3294;BME280;1659;51.470;6.770;2023-08-30T06:57:23;100436.84;;;17.97;80.34
3294;BME280;1659;51.470;6.770;2023-08-30T06:59:50;100440.06;;;18.35;79.48
3294;BME280;1659;51.470;6.770;2023-08-30T07:02:16;100430.75;;;18.73;78.35
3294;BME280;1659;51.470;6.770;2023-08-30T07:04:43;100428.16;;;19.03;77.42
3294;BME280;1659;51.470;6.770;2023-08-30T07:07:09;100430.78;;;19.19;76.61
3294;BME280;1659;51.470;6.770;2023-08-30T07:09:38;100426.84;;;19.24;75.73
3294;BME280;1659;51.470;6.770;2023-08-30T07:12:06;100425.31;;;19.20;75.17
3294;BME280;1659;51.470;6.770;2023-08-30T07:14:33;100416.53;;;19.33;74.28
3294;BME280;1659;51.470;6.770;2023-08-30T07:16:59;100405.63;;;19.36;73.65
3294;BME280;1659;51.470;6.770;2023-08-30T07:19:26;100417.41;;;19.48;73.42
3294;BME280;1659;51.470;6.770;2023-08-30T07:21:52;100407.34;;;19.66;71.94
3294;BME280;1659;51.470;6.770;2023-08-30T07:24:19;100415.53;;;19.78;71.83
3294;BME280;1659;51.470;6.770;2023-08-30T07:26:47;100417.50;;;20.04;71.12
3294;BME280;1659;51.470;6.770;2023-08-30T07:29:15;100416.44;;;20.21;70.62
3294;BME280;1659;51.470;6.770;2023-08-30T07:31:42;100416.09;;;20.40;69.88
3294;BME280;1659;51.470;6.770;2023-08-30T07:34:08;100409.16;;;20.50;69.48
3294;BME280;1659;51.470;6.770;2023-08-30T07:36:35;100404.00;;;20.74;68.96
3294;BME280;1659;51.470;6.770;2023-08-30T07:39:02;100403.63;;;20.93;68.48
3294;BME280;1659;51.470;6.770;2023-08-30T07:41:28;100407.63;;;21.13;67.80
3294;BME280;1659;51.470;6.770;2023-08-30T07:43:55;100399.13;;;21.06;67.73
3294;BME280;1659;51.470;6.770;2023-08-30T07:46:23;100406.34;;;21.06;67.68
3294;BME280;1659;51.470;6.770;2023-08-30T07:48:50;100404.81;;;21.02;67.69
3294;BME280;1659;51.470;6.770;2023-08-30T07:51:17;100398.03;;;20.96;67.26
3294;BME280;1659;51.470;6.770;2023-08-30T07:53:44;100400.44;;;21.01;66.93
3294;BME280;1659;51.470;6.770;2023-08-30T07:56:10;100404.97;;;21.13;66.34
3294;BME280;1659;51.470;6.770;2023-08-30T07:58:37;100397.13;;;21.36;65.76
3294;BME280;1659;51.470;6.770;2023-08-30T08:01:03;100397.31;;;21.84;63.67
3294;BME280;1659;51.470;6.770;2023-08-30T08:03:31;100392.94;;;22.20;62.42
3294;BME280;1659;51.470;6.770;2023-08-30T08:05:58;100399.50;;;22.29;61.48
3294;BME280;1659;51.470;6.770;2023-08-30T08:08:25;100401.91;;;22.44;59.73
3294;BME280;1659;51.470;6.770;2023-08-30T08:10:52;100398.72;;;22.27;59.22
3294;BME280;1659;51.470;6.770;2023-08-30T08:13:18;100403.91;;;21.80;58.73
3294;BME280;1659;51.470;6.770;2023-08-30T08:15:45;100405.59;;;21.29;59.51
3294;BME280;1659;51.470;6.770;2023-08-30T08:18:12;100409.63;;;20.97;60.24
3294;BME280;1659;51.470;6.770;2023-08-30T08:20:39;100409.78;;;20.68;60.31
3294;BME280;1659;51.470;6.770;2023-08-30T08:23:06;100408.13;;;20.80;59.80
3294;BME280;1659;51.470;6.770;2023-08-30T08:25:33;100411.72;;;21.06;59.04
3294;BME280;1659;51.470;6.770;2023-08-30T08:27:59;100409.44;;;21.00;58.98
3294;BME280;1659;51.470;6.770;2023-08-30T08:30:26;100409.25;;;20.75;58.89
3294;BME280;1659;51.470;6.770;2023-08-30T08:32:52;100418.72;;;20.54;59.49
3294;BME280;1659;51.470;6.770;2023-08-30T08:35:20;100406.69;;;20.47;59.81
3294;BME280;1659;51.470;6.770;2023-08-30T08:37:48;100404.09;;;20.45;60.04
3294;BME280;1659;51.470;6.770;2023-08-30T08:40:14;100400.78;;;20.54;60.04
3294;BME280;1659;51.470;6.770;2023-08-30T08:42:41;100400.09;;;20.65;60.06
3294;BME280;1659;51.470;6.770;2023-08-30T08:45:10;100400.81;;;20.82;59.77
3294;BME280;1659;51.470;6.770;2023-08-30T08:47:37;100417.19;;;20.64;59.61
3294;BME280;1659;51.470;6.770;2023-08-30T08:50:04;100414.38;;;20.38;60.17
3294;BME280;1659;51.470;6.770;2023-08-30T08:52:31;100414.69;;;20.19;60.59
3294;BME280;1659;51.470;6.770;2023-08-30T08:54:59;100414.91;;;20.02;60.96
3294;BME280;1659;51.470;6.770;2023-08-30T08:57:28;100418.13;;;19.80;61.22
3294;BME280;1659;51.470;6.770;2023-08-30T08:59:56;100410.34;;;19.61;61.59
3294;BME280;1659;51.470;6.770;2023-08-30T09:02:23;100405.34;;;19.40;61.97
3294;BME280;1659;51.470;6.770;2023-08-30T09:04:52;100417.47;;;19.17;62.66
3294;BME280;1659;51.470;6.770;2023-08-30T09:07:19;100411.41;;;18.99;63.16
3294;BME280;1659;51.470;6.770;2023-08-30T09:09:46;100410.63;;;18.81;63.91
3294;BME280;1659;51.470;6.770;2023-08-30T09:12:14;100406.28;;;18.64;64.40
3294;BME280;1659;51.470;6.770;2023-08-30T09:14:41;100415.09;;;18.51;64.84
3294;BME280;1659;51.470;6.770;2023-08-30T09:17:07;100408.72;;;18.37;65.39
3294;BME280;1659;51.470;6.770;2023-08-30T09:19:34;100413.13;;;18.22;65.86
3294;BME280;1659;51.470;6.770;2023-08-30T09:22:00;100408.72;;;18.05;66.41
3294;BME280;1659;51.470;6.770;2023-08-30T09:24:37;100418.22;;;17.95;66.97
3294;BME280;1659;51.470;6.770;2023-08-30T09:27:04;100418.41;;;17.74;67.63
3294;BME280;1659;51.470;6.770;2023-08-30T09:29:32;100409.81;;;17.52;68.64
3294;BME280;1659;51.470;6.770;2023-08-30T09:32:00;100412.38;;;17.20;69.90
3294;BME280;1659;51.470;6.770;2023-08-30T09:34:27;100416.91;;;16.83;71.47
3294;BME280;1659;51.470;6.770;2023-08-30T09:36:54;100424.31;;;16.59;72.51
3294;BME280;1659;51.470;6.770;2023-08-30T09:39:21;100414.63;;;16.39;73.38
3294;BME280;1659;51.470;6.770;2023-08-30T09:41:49;100419.28;;;16.16;74.69
3294;BME280;1659;51.470;6.770;2023-08-30T09:44:17;100410.34;;;15.98;75.52
3294;BME280;1659;51.470;6.770;2023-08-30T09:46:48;100408.38;;;15.83;76.58
3294;BME280;1659;51.470;6.770;2023-08-30T09:49:18;100407.19;;;15.70;77.57
3294;BME280;1659;51.470;6.770;2023-08-30T09:51:47;100407.75;;;15.57;78.14
3294;BME280;1659;51.470;6.770;2023-08-30T09:54:14;100409.03;;;15.48;78.88
3294;BME280;1659;51.470;6.770;2023-08-30T09:56:43;100398.88;;;15.38;79.56
3294;BME280;1659;51.470;6.770;2023-08-30T09:59:10;100400.81;;;15.34;80.21
3294;BME280;1659;51.470;6.770;2023-08-30T10:01:37;100400.22;;;15.27;80.57
3294;BME280;1659;51.470;6.770;2023-08-30T10:04:07;100397.75;;;15.23;81.04
3294;BME280;1659;51.470;6.770;2023-08-30T10:06:34;100394.41;;;15.18;81.67
3294;BME280;1659;51.470;6.770;2023-08-30T10:09:01;100397.94;;;15.18;82.01
3294;BME280;1659;51.470;6.770;2023-08-30T10:11:30;100402.47;;;15.16;82.80
3294;BME280;1659;51.470;6.770;2023-08-30T10:13:59;100402.53;;;15.15;83.54
3294;BME280;1659;51.470;6.770;2023-08-30T10:16:27;100401.72;;;15.13;84.26
3294;BME280;1659;51.470;6.770;2023-08-30T10:19:01;100407.28;;;15.08;85.21
3294;BME280;1659;51.470;6.770;2023-08-30T10:21:31;100400.47;;;15.01;86.06
3294;BME280;1659;51.470;6.770;2023-08-30T10:23:58;100402.13;;;15.03;86.46
3294;BME280;1659;51.470;6.770;2023-08-30T10:26:27;100398.47;;;15.06;86.75
3294;BME280;1659;51.470;6.770;2023-08-30T10:28:55;100391.38;;;15.06;87.07
3294;BME280;1659;51.470;6.770;2023-08-30T10:31:23;100391.22;;;15.09;87.36
3294;BME280;1659;51.470;6.770;2023-08-30T10:33:50;100395.56;;;15.12;87.40
3294;BME280;1659;51.470;6.770;2023-08-30T10:36:23;100401.59;;;15.16;87.69
3294;BME280;1659;51.470;6.770;2023-08-30T10:38:51;100399.81;;;15.16;88.01
3294;BME280;1659;51.470;6.770;2023-08-30T10:41:22;100401.53;;;15.17;88.19
3294;BME280;1659;51.470;6.770;2023-08-30T10:43:50;100396.16;;;15.19;88.56
3294;BME280;1659;51.470;6.770;2023-08-30T10:46:29;100395.22;;;15.20;88.77
3294;BME280;1659;51.470;6.770;2023-08-30T10:48:55;100397.06;;;15.18;89.10
3294;BME280;1659;51.470;6.770;2023-08-30T10:51:35;100390.97;;;15.16;89.62
3294;BME280;1659;51.470;6.770;2023-08-30T10:54:10;100399.00;;;15.14;90.18
3294;BME280;1659;51.470;6.770;2023-08-30T10:56:45;100392.09;;;15.10;91.26
3294;BME280;1659;51.470;6.770;2023-08-30T10:59:16;100395.63;;;15.10;92.15
3294;BME280;1659;51.470;6.770;2023-08-30T11:01:43;100391.38;;;15.06;92.76
3294;BME280;1659;51.470;6.770;2023-08-30T11:04:10;100404.88;;;15.02;93.65
3294;BME280;1659;51.470;6.770;2023-08-30T11:06:38;100404.06;;;15.00;94.28
3294;BME280;1659;51.470;6.770;2023-08-30T11:09:07;100398.03;;;14.96;94.84
3294;BME280;1659;51.470;6.770;2023-08-30T11:11:34;100404.38;;;14.92;95.19
3294;BME280;1659;51.470;6.770;2023-08-30T11:14:07;100402.84;;;14.86;95.67
3294;BME280;1659;51.470;6.770;2023-08-30T11:16:34;100395.16;;;14.80;96.90
3294;BME280;1659;51.470;6.770;2023-08-30T11:19:00;100387.28;;;14.77;97.54
3294;BME280;1659;51.470;6.770;2023-08-30T11:21:28;100383.78;;;14.77;98.20
3294;BME280;1659;51.470;6.770;2023-08-30T11:23:55;100387.28;;;14.77;99.06
3294;BME280;1659;51.470;6.770;2023-08-30T11:26:23;100389.97;;;14.77;99.40
3294;BME280;1659;51.470;6.770;2023-08-30T11:28:49;100392.56;;;14.79;99.50
3294;BME280;1659;51.470;6.770;2023-08-30T11:31:18;100389.09;;;14.77;99.76
3294;BME280;1659;51.470;6.770;2023-08-30T11:33:50;100388.16;;;14.78;100.00
3294;BME280;1659;51.470;6.770;2023-08-30T11:36:18;100390.75;;;14.79;100.00
3294;BME280;1659;51.470;6.770;2023-08-30T11:38:45;100383.63;;;14.80;100.00
3294;BME280;1659;51.470;6.770;2023-08-30T11:41:12;100388.88;;;14.81;100.00
3294;BME280;1659;51.470;6.770;2023-08-30T11:43:40;100387.13;;;14.82;100.00
3294;BME280;1659;51.470;6.770;2023-08-30T11:46:07;100381.69;;;14.83;100.00
3294;BME280;1659;51.470;6.770;2023-08-30T11:48:34;100380.59;;;14.89;100.00
3294;BME280;1659;51.470;6.770;2023-08-30T11:51:01;100375.06;;;14.94;100.00
3294;BME280;1659;51.470;6.770;2023-08-30T11:53:28;100374.19;;;14.93;100.00
3294;BME280;1659;51.470;6.770;2023-08-30T11:55:56;100376.78;;;14.95;100.00
3294;BME280;1659;51.470;6.770;2023-08-30T11:58:22;100382.72;;;15.01;100.00
3294;BME280;1659;51.470;6.770;2023-08-30T12:00:50;100379.72;;;15.09;100.00
3294;BME280;1659;51.470;6.770;2023-08-30T12:03:19;100387.22;;;15.20;100.00
3294;BME280;1659;51.470;6.770;2023-08-30T12:05:46;100382.44;;;15.28;100.00
3294;BME280;1659;51.470;6.770;2023-08-30T12:08:19;100387.50;;;15.34;100.00
3294;BME280;1659;51.470;6.770;2023-08-30T12:10:46;100377.66;;;15.36;100.00
3294;BME280;1659;51.470;6.770;2023-08-30T12:13:22;100384.63;;;15.39;100.00
3294;BME280;1659;51.470;6.770;2023-08-30T12:15:51;100377.47;;;15.39;100.00
3294;BME280;1659;51.470;6.770;2023-08-30T12:18:21;100371.22;;;15.40;100.00
3294;BME280;1659;51.470;6.770;2023-08-30T12:20:52;100389.00;;;15.40;100.00
3294;BME280;1659;51.470;6.770;2023-08-30T12:23:20;100389.94;;;15.39;100.00
3294;BME280;1659;51.470;6.770;2023-08-30T12:25:56;100389.09;;;15.38;100.00
3294;BME280;1659;51.470;6.770;2023-08-30T12:28:23;100374.03;;;15.37;100.00
3294;BME280;1659;51.470;6.770;2023-08-30T12:30:51;100359.84;;;15.37;100.00
3294;BME280;1659;51.470;6.770;2023-08-30T12:33:18;100357.13;;;15.38;100.00
3294;BME280;1659;51.470;6.770;2023-08-30T12:35:45;100355.31;;;15.39;100.00
3294;BME280;1659;51.470;6.770;2023-08-30T12:38:12;100355.38;;;15.37;100.00
3294;BME280;1659;51.470;6.770;2023-08-30T12:40:43;100348.41;;;15.35;100.00
3294;BME280;1659;51.470;6.770;2023-08-30T12:43:09;100349.41;;;15.32;100.00
3294;BME280;1659;51.470;6.770;2023-08-30T12:45:37;100357.47;;;15.30;100.00
3294;BME280;1659;51.470;6.770;2023-08-30T12:48:05;100363.66;;;15.31;100.00
3294;BME280;1659;51.470;6.770;2023-08-30T12:50:32;100353.88;;;15.32;100.00
3294;BME280;1659;51.470;6.770;2023-08-30T12:52:59;100356.41;;;15.35;100.00
3294;BME280;1659;51.470;6.770;2023-08-30T12:55:25;100361.81;;;15.33;100.00
3294;BME280;1659;51.470;6.770;2023-08-30T12:57:52;100360.94;;;15.33;100.00
3294;BME280;1659;51.470;6.770;2023-08-30T13:00:19;100350.38;;;15.31;100.00
3294;BME280;1659;51.470;6.770;2023-08-30T13:02:45;100353.16;;;15.28;100.00
3294;BME280;1659;51.470;6.770;2023-08-30T13:05:13;100358.53;;;15.26;100.00
3294;BME280;1659;51.470;6.770;2023-08-30T13:07:40;100361.19;;;15.26;100.00
3294;BME280;1659;51.470;6.770;2023-08-30T13:10:08;100345.22;;;15.26;100.00
3294;BME280;1659;51.470;6.770;2023-08-30T13:12:35;100344.44;;;15.24;100.00